Time;durP1;ratioP1;P1;durP2;ratioP2;P2;SDS_P1;SDS_P2;PMS_P1;PMS_P2;Temp;Humidity;BMP_temperature;BMP_pressure;BME280_temperature;BME280_humidity;BME280_pressure;Samples;Min_cycle;Max_cycle;Signal;HPM_P1;HPM_P2
2021/01/12 00:01:45;;;;;;;2.63;2.13;;;;;;;;;;5036530;28;20548;-70
2021/01/12 00:04:12;;;;;;;4.43;2.22;;;;;;;;;;5043272;28;20043;-70
2021/01/12 00:06:40;;;;;;;3.97;2.05;;;;;;;;;;5038013;28;20412;-70
2021/01/12 00:09:07;;;;;;;2.70;2.17;;;;;;;;;;5040780;28;20691;-69
2021/01/12 00:11:34;;;;;;;5.18;2.53;;;;;;;;;;5034538;28;20038;-69
2021/01/12 00:14:00;;;;;;;5.13;2.22;;;;;;;;;;5041068;28;20037;-69
2021/01/12 00:16:27;;;;;;;5.78;2.63;;;;;;;;;;5039566;28;20116;-69
2021/01/12 00:18:53;;;;;;;4.63;2.90;;;;;;;;;;5043322;28;20346;-69
2021/01/12 00:21:26;;;;;;;2.80;2.30;;;;;;;;;;5039950;28;20091;-69
2021/01/12 00:23:52;;;;;;;6.78;2.92;;;;;;;;;;5040151;28;20493;-69
2021/01/12 00:26:19;;;;;;;3.85;2.10;;;;;;;;;;5041212;28;20049;-69
2021/01/12 00:28:45;;;;;;;4.85;2.53;;;;;;;;;;5038369;28;20200;-69
2021/01/12 00:31:11;;;;;;;3.25;2.20;;;;;;;;;;5040441;28;20405;-68
2021/01/12 00:33:37;;;;;;;3.60;2.33;;;;;;;;;;5048648;28;20431;-68
2021/01/12 00:36:04;;;;;;;5.38;2.58;;;;;;;;;;5039466;28;20048;-69
2021/01/12 00:38:31;;;;;;;2.92;2.00;;;;;;;;;;5045253;28;20119;-69
2021/01/12 00:40:58;;;;;;;4.75;2.03;;;;;;;;;;5038258;28;20145;-68
2021/01/12 00:43:24;;;;;;;2.95;2.00;;;;;;;;;;5037332;28;20124;-68
2021/01/12 00:45:51;;;;;;;2.78;1.88;;;;;;;;;;5039759;28;20378;-69
2021/01/12 00:48:17;;;;;;;4.20;1.90;;;;;;;;;;5038200;28;20044;-68
2021/01/12 00:50:44;;;;;;;5.72;1.90;;;;;;;;;;5041950;28;20037;-69
2021/01/12 00:53:10;;;;;;;4.40;2.05;;;;;;;;;;5036875;28;20042;-68
2021/01/12 00:55:37;;;;;;;3.08;2.13;;;;;;;;;;5040670;28;20477;-68
2021/01/12 00:58:03;;;;;;;4.25;2.00;;;;;;;;;;5040419;28;20068;-68
2021/01/12 01:00:29;;;;;;;4.05;2.17;;;;;;;;;;5035864;28;20119;-68
2021/01/12 01:02:56;;;;;;;4.20;2.17;;;;;;;;;;5035174;28;20053;-68
2021/01/12 01:05:22;;;;;;;4.22;2.25;;;;;;;;;;5034636;28;20393;-68
2021/01/12 01:07:48;;;;;;;4.47;2.35;;;;;;;;;;5044096;28;20110;-68
2021/01/12 01:10:14;;;;;;;3.55;2.55;;;;;;;;;;5038671;28;20041;-68
2021/01/12 01:12:41;;;;;;;4.40;2.88;;;;;;;;;;5045263;28;20128;-68
2021/01/12 01:15:07;;;;;;;7.18;2.53;;;;;;;;;;5039544;28;20044;-68
2021/01/12 01:17:36;;;;;;;5.47;2.85;;;;;;;;;;5043266;28;20041;-68
2021/01/12 01:20:03;;;;;;;4.50;2.63;;;;;;;;;;5053791;28;20477;-68
2021/01/12 01:22:30;;;;;;;4.05;2.70;;;;;;;;;;5045425;28;20033;-68
2021/01/12 01:24:56;;;;;;;6.68;2.55;;;;;;;;;;5038099;28;20045;-68
2021/01/12 01:27:22;;;;;;;5.65;3.05;;;;;;;;;;5042171;28;20048;-68
2021/01/12 01:29:49;;;;;;;7.43;3.53;;;;;;;;;;5033278;28;20565;-68
2021/01/12 01:32:15;;;;;;;7.68;3.30;;;;;;;;;;5044749;28;20073;-68
2021/01/12 01:34:42;;;;;;;4.10;2.60;;;;;;;;;;5037424;28;20065;-68
2021/01/12 01:37:08;;;;;;;5.18;2.80;;;;;;;;;;5042062;28;20666;-68
2021/01/12 01:39:34;;;;;;;7.15;3.28;;;;;;;;;;5042485;28;20551;-68
2021/01/12 01:42:01;;;;;;;5.10;2.78;;;;;;;;;;5042483;28;20101;-68
2021/01/12 01:44:28;;;;;;;8.75;3.42;;;;;;;;;;5039471;28;20053;-67
2021/01/12 01:46:56;;;;;;;5.25;2.78;;;;;;;;;;5039791;28;20095;-67
2021/01/12 01:49:23;;;;;;;5.80;2.80;;;;;;;;;;5046118;28;20479;-67
2021/01/12 01:51:51;;;;;;;6.72;3.28;;;;;;;;;;5035403;28;20069;-67
2021/01/12 01:54:17;;;;;;;;;;;;;;;;;;5048003;28;20045;-66
2021/01/12 01:56:43;;;;;;;4.43;2.90;;;;;;;;;;5041058;28;19920;-67
2021/01/12 01:59:09;;;;;;;4.95;2.85;;;;;;;;;;5040230;28;20045;-67
2021/01/12 02:01:36;;;;;;;6.40;3.30;;;;;;;;;;5040279;28;20123;-66
2021/01/12 02:04:19;;;;;;;4.45;2.97;;;;;;;;;;5033909;28;20119;-67
2021/01/12 02:06:48;;;;;;;8.15;3.15;;;;;;;;;;5039856;28;20054;-67
2021/01/12 02:09:18;;;;;;;8.15;3.20;;;;;;;;;;5036012;28;20045;-67
2021/01/12 02:11:47;;;;;;;7.55;3.25;;;;;;;;;;5032492;28;20923;-67
2021/01/12 02:14:16;;;;;;;5.35;3.17;;;;;;;;;;5040977;28;20068;-67
2021/01/12 02:16:43;;;;;;;5.97;3.15;;;;;;;;;;5038347;28;20099;-67
2021/01/12 02:19:10;;;;;;;7.93;3.38;;;;;;;;;;5042403;28;20125;-67
2021/01/12 02:21:47;;;;;;;4.55;2.83;;;;;;;;;;5044108;28;20044;-67
2021/01/12 02:24:13;;;;;;;5.90;3.40;;;;;;;;;;5042355;28;20045;-67
2021/01/12 02:26:41;;;;;;;3.95;2.85;;;;;;;;;;5040519;28;20124;-67
2021/01/12 02:29:08;;;;;;;8.05;2.97;;;;;;;;;;5036429;28;20479;-67
2021/01/12 02:31:34;;;;;;;7.95;3.08;;;;;;;;;;5033044;28;20030;-67
2021/01/12 02:34:02;;;;;;;8.57;3.78;;;;;;;;;;5037420;28;20038;-67
2021/01/12 02:36:29;;;;;;;8.20;3.35;;;;;;;;;;5039290;28;20073;-67
2021/01/12 02:39:00;;;;;;;6.60;3.00;;;;;;;;;;5039820;28;20037;-67
2021/01/12 02:41:30;;;;;;;6.75;3.00;;;;;;;;;;5034493;28;20512;-67
2021/01/12 02:43:56;;;;;;;4.80;2.67;;;;;;;;;;5046828;28;20155;-67
2021/01/12 02:46:23;;;;;;;5.15;2.80;;;;;;;;;;5032823;28;20038;-67
2021/01/12 02:48:49;;;;;;;4.97;2.35;;;;;;;;;;5037078;28;20054;-67
2021/01/12 02:51:15;;;;;;;6.03;2.30;;;;;;;;;;5048560;28;20041;-67
2021/01/12 02:53:41;;;;;;;7.38;2.58;;;;;;;;;;5037683;28;20120;-67
2021/01/12 02:56:07;;;;;;;4.70;2.33;;;;;;;;;;5033296;28;20128;-67
2021/01/12 02:58:34;;;;;;;4.88;2.63;;;;;;;;;;5033172;28;20092;-67
2021/01/12 03:01:01;;;;;;;4.70;2.40;;;;;;;;;;5035121;28;20052;-67
2021/01/12 03:03:27;;;;;;;4.80;2.40;;;;;;;;;;5056034;28;20041;-67
2021/01/12 03:05:53;;;;;;;4.03;2.35;;;;;;;;;;5040558;28;20072;-67
2021/01/12 03:08:20;;;;;;;4.47;2.35;;;;;;;;;;5047216;28;20041;-68
2021/01/12 03:10:46;;;;;;;4.60;2.40;;;;;;;;;;5042463;28;20123;-68
2021/01/12 03:13:13;;;;;;;4.83;1.90;;;;;;;;;;5036993;28;20045;-67
2021/01/12 03:15:39;;;;;;;5.93;2.47;;;;;;;;;;5040676;28;20049;-67
2021/01/12 03:18:07;;;;;;;5.55;2.65;;;;;;;;;;5036607;28;20041;-67
2021/01/12 03:20:33;;;;;;;5.18;2.00;;;;;;;;;;5036969;28;20682;-67
2021/01/12 03:23:00;;;;;;;5.20;2.10;;;;;;;;;;5039546;28;20404;-67
2021/01/12 03:25:27;;;;;;;8.27;2.63;;;;;;;;;;5040132;28;20052;-67
2021/01/12 03:27:53;;;;;;;4.43;2.00;;;;;;;;;;5045217;28;20059;-68
2021/01/12 03:30:20;;;;;;;3.75;2.03;;;;;;;;;;5043386;28;20056;-68
2021/01/12 03:32:46;;;;;;;3.95;2.30;;;;;;;;;;5040441;28;20451;-67
2021/01/12 03:35:13;;;;;;;7.07;2.40;;;;;;;;;;5037745;28;20047;-68
2021/01/12 03:37:39;;;;;;;4.37;2.20;;;;;;;;;;5043394;28;20041;-67
2021/01/12 03:40:06;;;;;;;8.23;2.43;;;;;;;;;;5041244;28;20054;-67
2021/01/12 03:42:32;;;;;;;5.85;2.42;;;;;;;;;;5043519;28;20459;-67
2021/01/12 03:44:58;;;;;;;5.53;1.97;;;;;;;;;;5037979;28;20084;-67
2021/01/12 03:47:25;;;;;;;7.50;2.27;;;;;;;;;;5041108;28;20040;-67
2021/01/12 03:49:51;;;;;;;4.07;2.08;;;;;;;;;;5034472;28;20045;-68
2021/01/12 03:52:17;;;;;;;25.53;2.80;;;;;;;;;;5039937;28;20036;-68
2021/01/12 03:54:44;;;;;;;4.03;2.03;;;;;;;;;;5038311;28;20124;-68
2021/01/12 03:57:10;;;;;;;4.27;1.80;;;;;;;;;;5046750;28;20048;-67
2021/01/12 03:59:36;;;;;;;5.20;1.80;;;;;;;;;;5036785;28;20036;-68
2021/01/12 04:02:03;;;;;;;7.70;2.43;;;;;;;;;;5040428;28;20056;-68
2021/01/12 04:04:29;;;;;;;6.40;2.30;;;;;;;;;;5036174;28;20045;-68
2021/01/12 04:06:55;;;;;;;5.57;2.60;;;;;;;;;;5041297;28;20053;-68
2021/01/12 04:09:23;;;;;;;5.57;2.70;;;;;;;;;;5037438;28;20050;-68
2021/01/12 04:11:49;;;;;;;7.50;2.75;;;;;;;;;;5034756;28;20068;-68
2021/01/12 04:14:15;;;;;;;6.17;2.50;;;;;;;;;;5046893;28;20413;-69
2021/01/12 04:16:41;;;;;;;8.33;2.60;;;;;;;;;;5050517;28;20044;-68
2021/01/12 04:19:08;;;;;;;3.85;1.90;;;;;;;;;;5040342;28;20068;-68
2021/01/12 04:21:35;;;;;;;5.10;2.13;;;;;;;;;;5044550;28;20037;-68
2021/01/12 04:24:01;;;;;;;4.57;2.50;;;;;;;;;;5033308;28;20049;-68
2021/01/12 04:26:27;;;;;;;4.97;2.10;;;;;;;;;;5038968;28;20053;-68
2021/01/12 04:28:54;;;;;;;6.20;2.40;;;;;;;;;;5038705;28;20502;-68
2021/01/12 04:31:20;;;;;;;6.03;2.30;;;;;;;;;;5034141;28;20503;-68
2021/01/12 04:33:46;;;;;;;6.97;2.70;;;;;;;;;;5042828;28;20044;-68
2021/01/12 04:36:13;;;;;;;10.37;4.13;;;;;;;;;;5042906;28;20184;-67
2021/01/12 04:38:39;;;;;;;4.27;2.50;;;;;;;;;;5036347;28;20041;-68
2021/01/12 04:41:05;;;;;;;4.57;2.57;;;;;;;;;;5046899;28;20095;-68
2021/01/12 04:43:31;;;;;;;5.97;2.67;;;;;;;;;;5041918;28;20042;-68
2021/01/12 04:46:00;;;;;;;5.47;2.80;;;;;;;;;;5046000;28;20045;-68
2021/01/12 04:48:26;;;;;;;4.55;2.50;;;;;;;;;;5036152;28;20801;-68
2021/01/12 04:51:03;;;;;;;6.40;2.90;;;;;;;;;;5039579;28;20469;-68
2021/01/12 04:53:39;;;;;;;7.20;2.53;;;;;;;;;;5039291;28;20052;-67
2021/01/12 04:56:06;;;;;;;6.17;2.50;;;;;;;;;;5038881;28;20549;-68
2021/01/12 04:58:39;;;;;;;6.40;2.60;;;;;;;;;;5038463;28;20063;-68
2021/01/12 05:01:17;;;;;;;6.47;2.53;;;;;;;;;;5040006;28;20049;-68
2021/01/12 05:03:45;;;;;;;4.90;2.60;;;;;;;;;;5037012;28;20041;-68
2021/01/12 05:06:12;;;;;;;9.73;3.03;;;;;;;;;;5038964;28;20572;-68
2021/01/12 05:08:42;;;;;;;7.85;2.90;;;;;;;;;;5041151;28;20383;-68
2021/01/12 05:11:09;;;;;;;7.67;2.70;;;;;;;;;;5035384;28;20045;-68
2021/01/12 05:13:35;;;;;;;4.03;2.15;;;;;;;;;;5042944;28;20098;-68
2021/01/12 05:16:05;;;;;;;9.68;2.95;;;;;;;;;;5035345;28;20054;-68
2021/01/12 05:18:36;;;;;;;6.97;2.73;;;;;;;;;;5040009;28;20397;-67
2021/01/12 05:21:04;;;;;;;9.33;3.27;;;;;;;;;;5035115;28;20599;-68
2021/01/12 05:23:41;;;;;;;7.57;2.70;;;;;;;;;;5041700;28;20045;-68
2021/01/12 05:26:10;;;;;;;14.25;3.00;;;;;;;;;;5045851;28;20061;-68
2021/01/12 05:28:37;;;;;;;6.50;2.70;;;;;;;;;;5037279;28;20045;-68
2021/01/12 05:31:06;;;;;;;20.38;4.68;;;;;;;;;;5039382;28;20041;-68
2021/01/12 05:33:33;;;;;;;10.47;3.93;;;;;;;;;;5037178;28;20040;-68
2021/01/12 05:36:00;;;;;;;6.05;2.67;;;;;;;;;;5037081;28;20056;-68
2021/01/12 05:38:27;;;;;;;7.85;2.70;;;;;;;;;;5042195;28;20049;-68
2021/01/12 05:40:59;;;;;;;4.85;2.60;;;;;;;;;;5035754;28;20115;-68
2021/01/12 05:43:31;;;;;;;6.37;2.60;;;;;;;;;;5039399;28;20049;-68
2021/01/12 05:46:04;;;;;;;4.57;2.97;;;;;;;;;;5044251;28;20048;-68
2021/01/12 05:48:32;;;;;;;7.63;3.03;;;;;;;;;;5038665;28;20087;-68
2021/01/12 05:50:58;;;;;;;;;;;;;;;;;;5045919;28;20056;-68
2021/01/12 05:53:32;;;;;;;7.10;3.00;;;;;;;;;;5037110;28;19933;-68
2021/01/12 05:56:01;;;;;;;10.33;2.77;;;;;;;;;;5036134;28;20092;-68
2021/01/12 05:58:31;;;;;;;4.63;2.57;;;;;;;;;;5035448;28;20415;-68
2021/01/12 06:01:01;;;;;;;8.87;2.97;;;;;;;;;;5042833;28;20050;-68
2021/01/12 06:03:28;;;;;;;8.47;3.07;;;;;;;;;;5035393;28;20395;-68
2021/01/12 06:05:54;;;;;;;10.27;3.17;;;;;;;;;;5034777;28;20129;-68
2021/01/12 06:08:20;;;;;;;6.60;2.90;;;;;;;;;;5044456;28;20076;-68
2021/01/12 06:10:47;;;;;;;6.13;2.78;;;;;;;;;;5031625;28;20473;-68
2021/01/12 06:13:15;;;;;;;9.33;2.30;;;;;;;;;;5043380;28;20493;-68
2021/01/12 06:15:42;;;;;;;7.60;2.90;;;;;;;;;;5044836;28;20049;-68
2021/01/12 06:18:13;;;;;;;5.68;2.75;;;;;;;;;;5036156;28;20423;-68
2021/01/12 06:20:55;;;;;;;7.00;3.20;;;;;;;;;;5036219;28;20110;-68
2021/01/12 06:23:27;;;;;;;8.27;3.53;;;;;;;;;;5037932;28;20049;-68
2021/01/12 06:25:53;;;;;;;14.07;3.70;;;;;;;;;;5035490;28;20654;-68
2021/01/12 06:28:20;;;;;;;5.53;2.43;;;;;;;;;;5041057;28;20069;-68
2021/01/12 06:30:46;;;;;;;7.50;3.20;;;;;;;;;;5041795;28;20356;-68
2021/01/12 06:33:14;;;;;;;10.23;3.03;;;;;;;;;;5038150;28;20069;-67
2021/01/12 06:35:41;;;;;;;14.40;3.50;;;;;;;;;;5038665;28;20596;-68
2021/01/12 06:38:07;;;;;;;8.88;2.33;;;;;;;;;;5037730;28;20056;-68
2021/01/12 06:40:35;;;;;;;10.57;3.07;;;;;;;;;;5048367;28;20142;-68
2021/01/12 06:43:01;;;;;;;;;;;;;;;;;;5043087;28;20061;-68
2021/01/12 06:45:28;;;;;;;4.63;2.67;;;;;;;;;;5041725;28;19921;-68
2021/01/12 06:47:54;;;;;;;8.73;3.17;;;;;;;;;;5042985;28;20127;-68
2021/01/12 06:50:23;;;;;;;8.33;3.33;;;;;;;;;;5043171;28;20045;-68
2021/01/12 06:52:50;;;;;;;8.43;3.50;;;;;;;;;;5038887;28;20346;-68
2021/01/12 06:55:20;;;;;;;9.82;3.40;;;;;;;;;;5049552;28;20543;-68
2021/01/12 06:57:47;;;;;;;7.37;3.03;;;;;;;;;;5045818;28;20068;-68
2021/01/12 07:00:15;;;;;;;8.27;3.00;;;;;;;;;;5051400;28;20064;-68
2021/01/12 07:02:41;;;;;;;;;;;;;;;;;;5043858;28;20037;-68
2021/01/12 07:05:11;;;;;;;4.57;2.80;;;;;;;;;;5037609;28;19921;-68
2021/01/12 07:07:38;;;;;;;11.47;2.87;;;;;;;;;;5040059;28;20601;-68
2021/01/12 07:10:06;;;;;;;7.80;2.30;;;;;;;;;;5041397;28;20072;-68
2021/01/12 07:12:32;;;;;;;7.73;2.97;;;;;;;;;;5043748;28;20500;-68
2021/01/12 07:15:03;;;;;;;9.60;3.23;;;;;;;;;;5048980;28;20049;-68
2021/01/12 07:17:38;;;;;;;7.97;2.90;;;;;;;;;;5048515;28;20076;-68
2021/01/12 07:20:11;;;;;;;6.23;2.70;;;;;;;;;;5044118;28;20079;-68
2021/01/12 07:22:38;;;;;;;9.17;2.70;;;;;;;;;;5049727;28;20044;-68
2021/01/12 07:25:05;;;;;;;13.38;3.10;;;;;;;;;;5049220;28;20041;-68
2021/01/12 07:27:32;;;;;;;8.83;3.43;;;;;;;;;;5047877;28;20053;-68
2021/01/12 07:30:01;;;;;;;6.67;2.73;;;;;;;;;;5053151;28;20496;-68
2021/01/12 07:32:50;;;;;;;9.07;2.60;;;;;;;;;;5044556;28;20045;-68
2021/01/12 07:35:17;;;;;;;5.13;2.70;;;;;;;;;;5044284;28;20412;-68
2021/01/12 07:37:43;;;;;;;6.93;2.97;;;;;;;;;;5037400;28;20531;-68
2021/01/12 07:40:13;;;;;;;9.77;3.00;;;;;;;;;;5037294;28;20057;-68
2021/01/12 07:42:46;;;;;;;10.83;2.83;;;;;;;;;;5045524;28;20626;-69
2021/01/12 07:45:13;;;;;;;5.33;2.70;;;;;;;;;;5044376;28;20507;-68
2021/01/12 07:47:39;;;;;;;9.80;2.97;;;;;;;;;;5047729;28;20134;-68
2021/01/12 07:50:07;;;;;;;7.80;3.20;;;;;;;;;;5040929;28;20080;-68
2021/01/12 07:52:34;;;;;;;13.40;3.77;;;;;;;;;;5043571;28;20591;-68
2021/01/12 07:55:00;;;;;;;11.60;4.53;;;;;;;;;;5047181;28;20049;-68
2021/01/12 07:57:28;;;;;;;7.07;3.33;;;;;;;;;;5046371;28;20041;-68
2021/01/12 07:59:54;;;;;;;7.90;3.00;;;;;;;;;;5034442;28;20490;-68
2021/01/12 08:02:23;;;;;;;4.97;2.05;;;;;;;;;;5047916;28;20044;-69
2021/01/12 08:04:50;;;;;;;12.77;2.73;;;;;;;;;;5041386;28;20119;-68
2021/01/12 08:07:25;;;;;;;4.43;2.40;;;;;;;;;;5050862;28;20459;-68
2021/01/12 08:09:53;;;;;;;16.87;2.80;;;;;;;;;;5043633;28;20048;-68
2021/01/12 08:12:19;;;;;;;5.45;2.63;;;;;;;;;;5048567;28;20056;-68
2021/01/12 08:14:46;;;;;;;6.97;2.47;;;;;;;;;;5041707;28;20068;-68
2021/01/12 08:17:18;;;;;;;9.73;2.93;;;;;;;;;;5047388;28;20504;-68
2021/01/12 08:19:44;;;;;;;6.67;2.77;;;;;;;;;;5036511;28;20041;-68
2021/01/12 08:22:10;;;;;;;8.63;2.90;;;;;;;;;;5033089;28;20038;-68
2021/01/12 08:24:37;;;;;;;10.05;2.80;;;;;;;;;;5038917;28;20038;-68
2021/01/12 08:27:06;;;;;;;7.07;1.90;;;;;;;;;;5034065;28;20061;-68
2021/01/12 08:29:32;;;;;;;6.57;2.80;;;;;;;;;;5036137;28;20800;-68
2021/01/12 08:32:09;;;;;;;5.38;2.60;;;;;;;;;;5047075;28;20056;-68
2021/01/12 08:34:45;;;;;;;8.43;2.60;;;;;;;;;;5050949;28;20045;-68
2021/01/12 08:37:13;;;;;;;10.87;2.67;;;;;;;;;;5045176;28;20053;-68
2021/01/12 08:39:40;;;;;;;8.60;2.70;;;;;;;;;;5041886;28;20076;-68
2021/01/12 08:42:07;;;;;;;7.32;2.58;;;;;;;;;;5047092;28;20048;-68
2021/01/12 08:44:36;;;;;;;7.80;3.85;;;;;;;;;;5045587;28;20052;-68
2021/01/12 08:47:05;;;;;;;7.67;5.00;;;;;;;;;;5043994;28;20049;-68
2021/01/12 08:49:32;;;;;;;7.57;3.53;;;;;;;;;;5048071;28;20107;-68
2021/01/12 08:51:59;;;;;;;11.98;2.85;;;;;;;;;;5038213;28;20037;-68
2021/01/12 08:54:26;;;;;;;;;;;;;;;;;;5039199;28;20120;-68
2021/01/12 08:56:56;;;;;;;5.43;2.40;;;;;;;;;;5045928;28;19924;-68
2021/01/12 08:59:42;;;;;;;8.47;2.90;;;;;;;;;;5035135;28;20497;-68
2021/01/12 09:02:16;;;;;;;4.90;2.50;;;;;;;;;;5044562;28;20046;-68
2021/01/12 09:04:43;;;;;;;9.07;2.70;;;;;;;;;;5039244;28;20056;-68
2021/01/12 09:07:09;;;;;;;7.87;2.63;;;;;;;;;;5041562;28;20037;-68
2021/01/12 09:09:35;;;;;;;7.00;2.70;;;;;;;;;;5041814;28;20042;-68
2021/01/12 09:12:09;;;;;;;7.83;2.33;;;;;;;;;;5038178;28;20056;-67
2021/01/12 09:14:44;;;;;;;8.60;2.20;;;;;;;;;;5040652;28;20103;-68
2021/01/12 09:17:14;;;;;;;5.77;2.33;;;;;;;;;;5039702;28;20037;-68
2021/01/12 09:19:41;;;;;;;6.37;2.20;;;;;;;;;;5041660;28;20128;-68
2021/01/12 09:22:15;;;;;;;5.73;2.33;;;;;;;;;;5037014;28;20115;-68
2021/01/12 09:24:46;;;;;;;9.07;2.40;;;;;;;;;;5034524;28;20095;-68
2021/01/12 09:27:16;;;;;;;8.13;2.70;;;;;;;;;;5039875;28;20123;-68
2021/01/12 09:29:42;;;;;;;9.57;3.60;;;;;;;;;;5037353;28;20037;-68
2021/01/12 09:32:11;;;;;;;15.67;6.67;;;;;;;;;;5042194;28;20128;-68
2021/01/12 09:34:40;;;;;;;9.17;3.83;;;;;;;;;;5044319;28;20077;-68
2021/01/12 09:37:14;;;;;;;6.63;2.73;;;;;;;;;;5040143;28;20095;-68
2021/01/12 09:39:40;;;;;;;5.27;2.37;;;;;;;;;;5049719;28;20488;-68
2021/01/12 09:42:06;;;;;;;6.55;2.60;;;;;;;;;;5038126;28;20041;-68
2021/01/12 09:44:32;;;;;;;8.55;2.67;;;;;;;;;;5033711;28;20045;-68
2021/01/12 09:47:02;;;;;;;4.73;2.10;;;;;;;;;;5043308;28;20048;-68
2021/01/12 09:49:29;;;;;;;9.00;2.40;;;;;;;;;;5037491;28;20095;-68
2021/01/12 09:51:55;;;;;;;9.80;2.45;;;;;;;;;;5043303;28;20037;-68
2021/01/12 09:54:22;;;;;;;8.32;2.03;;;;;;;;;;5040416;28;20037;-68
2021/01/12 09:56:48;;;;;;;9.07;2.47;;;;;;;;;;5042209;28;20037;-68
2021/01/12 09:59:14;;;;;;;3.63;1.85;;;;;;;;;;5038580;28;20103;-68
2021/01/12 10:01:40;;;;;;;9.77;2.40;;;;;;;;;;5039763;28;20045;-68
2021/01/12 10:04:09;;;;;;;4.57;2.13;;;;;;;;;;5034126;28;20107;-68
2021/01/12 10:06:46;;;;;;;3.63;1.85;;;;;;;;;;5040381;28;20103;-68
2021/01/12 10:09:13;;;;;;;4.55;1.40;;;;;;;;;;5036814;28;20030;-68
2021/01/12 10:11:39;;;;;;;8.60;1.88;;;;;;;;;;5038502;28;20053;-68
2021/01/12 10:14:06;;;;;;;5.50;2.40;;;;;;;;;;5043942;28;20111;-68
2021/01/12 10:16:32;;;;;;;3.57;2.20;;;;;;;;;;5040168;28;20075;-67
2021/01/12 10:18:58;;;;;;;10.27;1.90;;;;;;;;;;5037283;28;20053;-67
2021/01/12 10:21:25;;;;;;;10.30;2.10;;;;;;;;;;5041903;28;20037;-67
2021/01/12 10:23:51;;;;;;;4.53;1.90;;;;;;;;;;5045102;28;20091;-67
2021/01/12 10:26:18;;;;;;;3.33;1.80;;;;;;;;;;5045892;28;20099;-67
2021/01/12 10:28:47;;;;;;;6.10;1.75;;;;;;;;;;5048416;28;20068;-67
2021/01/12 10:31:14;;;;;;;8.98;2.28;;;;;;;;;;5048543;28;20130;-67
2021/01/12 10:33:42;;;;;;;6.72;1.67;;;;;;;;;;5052791;28;20048;-67
2021/01/12 10:36:12;;;;;;;6.50;2.05;;;;;;;;;;5044550;28;20034;-67
2021/01/12 10:38:38;;;;;;;22.25;7.75;;;;;;;;;;5048985;28;20029;-67
2021/01/12 10:41:05;;;;;;;7.25;2.92;;;;;;;;;;5043377;28;20045;-67
2021/01/12 10:43:31;;;;;;;8.80;2.80;;;;;;;;;;5041631;28;20042;-67
2021/01/12 10:45:57;;;;;;;31.05;9.38;;;;;;;;;;5047453;28;20485;-67
2021/01/12 10:48:24;;;;;;;25.02;7.82;;;;;;;;;;5040433;28;20038;-67
2021/01/12 10:50:50;;;;;;;7.13;2.42;;;;;;;;;;5044095;28;20110;-67
2021/01/12 10:53:16;;;;;;;10.20;2.70;;;;;;;;;;5043837;28;20087;-67
2021/01/12 10:55:42;;;;;;;7.20;3.00;;;;;;;;;;5039449;28;20417;-67
2021/01/12 10:58:12;;;;;;;4.15;2.10;;;;;;;;;;5046135;28;20049;-67
2021/01/12 11:00:39;;;;;;;5.40;2.40;;;;;;;;;;5039686;28;20060;-67
2021/01/12 11:03:09;;;;;;;5.47;1.58;;;;;;;;;;5044913;28;20060;-67
2021/01/12 11:05:38;;;;;;;8.23;1.90;;;;;;;;;;5044209;28;20211;-67
2021/01/12 11:08:04;;;;;;;8.73;2.42;;;;;;;;;;5045344;28;20111;-67
2021/01/12 11:10:30;;;;;;;7.22;1.95;;;;;;;;;;5047064;28;20157;-67
2021/01/12 11:12:59;;;;;;;8.48;1.88;;;;;;;;;;5043066;28;20048;-67
2021/01/12 11:15:27;;;;;;;5.97;1.65;;;;;;;;;;5035611;28;20543;-67
2021/01/12 11:17:53;;;;;;;4.40;1.73;;;;;;;;;;5042248;28;20053;-67
2021/01/12 11:20:20;;;;;;;;;;;;;;;;;;5036658;28;20119;-67
2021/01/12 11:22:47;;;;;;;4.22;1.80;;;;;;;;;;5037121;28;19931;-67
2021/01/12 11:25:16;;;;;;;8.57;1.98;;;;;;;;;;5040150;28;20038;-67
2021/01/12 11:27:43;;;;;;;2.75;1.65;;;;;;;;;;5039279;28;20072;-67
2021/01/12 11:30:09;;;;;;;4.25;1.63;;;;;;;;;;5043897;28;20091;-67
2021/01/12 11:32:37;;;;;;;6.63;1.95;;;;;;;;;;5048601;28;20052;-67
2021/01/12 11:35:04;;;;;;;11.05;2.10;;;;;;;;;;5045565;28;20040;-67
2021/01/12 11:37:31;;;;;;;6.20;1.50;;;;;;;;;;5052660;28;20037;-67
2021/01/12 11:39:58;;;;;;;3.97;1.40;;;;;;;;;;5044459;28;20045;-67
2021/01/12 11:42:24;;;;;;;5.25;1.52;;;;;;;;;;5041120;28;20914;-67
2021/01/12 11:44:51;;;;;;;2.50;1.15;;;;;;;;;;5037132;28;20075;-67
2021/01/12 11:47:17;;;;;;;5.72;1.80;;;;;;;;;;5037024;28;20045;-67
2021/01/12 11:49:43;;;;;;;12.27;1.30;;;;;;;;;;5036694;28;20033;-67
2021/01/12 11:52:09;;;;;;;7.43;1.50;;;;;;;;;;5038399;28;20045;-67
2021/01/12 11:54:36;;;;;;;4.72;1.27;;;;;;;;;;5036839;28;20528;-68
2021/01/12 11:57:05;;;;;;;6.60;1.30;;;;;;;;;;5049219;28;20493;-67
2021/01/12 11:59:31;;;;;;;5.85;1.08;;;;;;;;;;5043040;28;20465;-67
2021/01/12 12:01:57;;;;;;;4.80;1.42;;;;;;;;;;5044543;28;20056;-67
2021/01/12 12:04:25;;;;;;;6.72;1.45;;;;;;;;;;5050839;28;20033;-67
2021/01/12 12:06:58;;;;;;;12.23;1.45;;;;;;;;;;5056466;28;20099;-67
2021/01/12 12:09:26;;;;;;;3.30;1.40;;;;;;;;;;5042141;28;20052;-67
2021/01/12 12:11:52;;;;;;;9.43;2.33;;;;;;;;;;5045004;28;20072;-68
2021/01/12 12:14:19;;;;;;;5.18;1.10;;;;;;;;;;5053622;28;20052;-66
2021/01/12 12:16:46;;;;;;;8.52;1.20;;;;;;;;;;5041809;28;20102;-67
2021/01/12 12:19:16;;;;;;;4.65;1.02;;;;;;;;;;5045239;28;20049;-67
2021/01/12 12:21:51;;;;;;;4.10;1.00;;;;;;;;;;5039048;28;20068;-68
2021/01/12 12:24:19;;;;;;;8.60;1.58;;;;;;;;;;5044769;28;20478;-68
2021/01/12 12:26:45;;;;;;;9.85;1.23;;;;;;;;;;5046419;28;20061;-67
2021/01/12 12:29:11;;;;;;;7.18;1.42;;;;;;;;;;5045135;28;20455;-67
2021/01/12 12:31:38;;;;;;;4.18;1.48;;;;;;;;;;5044567;28;20076;-67
2021/01/12 12:34:04;;;;;;;9.60;1.25;;;;;;;;;;5036230;28;20511;-68
2021/01/12 12:36:31;;;;;;;3.67;1.10;;;;;;;;;;5041116;28;20041;-67
2021/01/12 12:38:57;;;;;;;8.93;1.23;;;;;;;;;;5041052;28;20064;-67
2021/01/12 12:41:24;;;;;;;8.82;1.20;;;;;;;;;;5042101;28;20041;-68
2021/01/12 12:43:50;;;;;;;5.80;1.00;;;;;;;;;;5035756;28;20589;-67
2021/01/12 12:46:18;;;;;;;6.03;1.50;;;;;;;;;;5042367;28;20049;-68
2021/01/12 12:48:45;;;;;;;4.57;1.10;;;;;;;;;;5040044;28;20041;-68
2021/01/12 12:51:12;;;;;;;5.32;0.95;;;;;;;;;;5042319;28;20041;-68
2021/01/12 12:53:41;;;;;;;10.63;1.50;;;;;;;;;;5038338;28;20142;-68
2021/01/12 12:56:11;;;;;;;7.53;1.00;;;;;;;;;;5049497;28;20044;-68
2021/01/12 12:58:37;;;;;;;1.98;1.00;;;;;;;;;;5042941;28;20046;-68
2021/01/12 13:01:04;;;;;;;9.43;1.35;;;;;;;;;;5039308;28;20543;-68
2021/01/12 13:03:30;;;;;;;12.07;1.53;;;;;;;;;;5036754;28;20060;-69
2021/01/12 13:06:00;;;;;;;13.20;1.40;;;;;;;;;;5042403;28;20036;-69
2021/01/12 13:08:28;;;;;;;2.72;1.00;;;;;;;;;;5038956;28;20049;-70
2021/01/12 13:10:55;;;;;;;11.65;1.50;;;;;;;;;;5042754;28;20041;-69
2021/01/12 13:13:22;;;;;;;3.95;0.95;;;;;;;;;;5036690;28;20037;-69
2021/01/12 13:15:49;;;;;;;5.25;1.27;;;;;;;;;;5041191;28;20055;-69
2021/01/12 13:18:19;;;;;;;11.65;1.85;;;;;;;;;;5042564;28;20041;-69
2021/01/12 13:20:46;;;;;;;6.35;1.10;;;;;;;;;;5038795;28;20191;-69
2021/01/12 13:23:12;;;;;;;2.33;1.10;;;;;;;;;;5038795;28;20390;-69
2021/01/12 13:25:39;;;;;;;8.80;2.85;;;;;;;;;;5047830;28;20106;-69
2021/01/12 13:28:05;;;;;;;2.33;1.13;;;;;;;;;;5047261;28;20073;-69
2021/01/12 13:30:31;;;;;;;5.80;1.25;;;;;;;;;;5037931;28;20119;-69
2021/01/12 13:32:58;;;;;;;3.75;1.20;;;;;;;;;;5045713;28;20041;-69
2021/01/12 13:35:24;;;;;;;6.70;1.65;;;;;;;;;;5039309;28;20048;-69
2021/01/12 13:37:51;;;;;;;8.10;1.88;;;;;;;;;;5044254;28;20417;-69
2021/01/12 13:40:17;;;;;;;4.90;1.30;;;;;;;;;;5037883;28;20041;-69
2021/01/12 13:42:48;;;;;;;6.22;1.52;;;;;;;;;;5034428;28;20448;-71
2021/01/12 13:45:15;;;;;;;7.45;1.33;;;;;;;;;;5049314;28;20068;-69
2021/01/12 13:47:42;;;;;;;3.28;1.40;;;;;;;;;;5043839;28;20047;-69
2021/01/12 13:50:09;;;;;;;4.85;1.23;;;;;;;;;;5041629;28;20045;-69
2021/01/12 13:52:35;;;;;;;2.83;1.27;;;;;;;;;;5037799;28;20045;-69
2021/01/12 13:55:02;;;;;;;5.82;1.35;;;;;;;;;;5044496;28;20041;-69
2021/01/12 13:57:35;;;;;;;4.68;1.63;;;;;;;;;;5043575;28;20563;-69
2021/01/12 14:00:06;;;;;;;6.60;1.38;;;;;;;;;;5042039;28;20041;-69
2021/01/12 14:02:33;;;;;;;9.07;1.45;;;;;;;;;;5041614;28;20096;-69
2021/01/12 14:04:59;;;;;;;5.57;0.80;;;;;;;;;;5037519;28;20501;-69
2021/01/12 14:07:26;;;;;;;3.97;0.93;;;;;;;;;;5042019;28;20033;-68
2021/01/12 14:09:53;;;;;;;5.85;0.98;;;;;;;;;;5047546;28;20452;-69
2021/01/12 14:12:21;;;;;;;1.90;1.02;;;;;;;;;;5040374;28;20054;-69
2021/01/12 14:14:48;;;;;;;4.93;1.10;;;;;;;;;;5037416;28;20105;-68
2021/01/12 14:17:15;;;;;;;9.57;1.40;;;;;;;;;;5041023;28;20050;-69
2021/01/12 14:19:43;;;;;;;5.07;1.00;;;;;;;;;;5035540;28;20076;-69
2021/01/12 14:22:10;;;;;;;3.73;1.07;;;;;;;;;;5038517;28;20120;-68
2021/01/12 14:24:37;;;;;;;8.07;1.02;;;;;;;;;;5038943;28;20057;-68
2021/01/12 14:27:09;;;;;;;6.13;1.20;;;;;;;;;;5038766;28;20052;-68
2021/01/12 14:29:35;;;;;;;3.53;1.13;;;;;;;;;;5045753;28;20102;-68
2021/01/12 14:32:01;;;;;;;6.38;1.02;;;;;;;;;;5038492;28;20045;-68
2021/01/12 14:34:28;;;;;;;2.78;0.93;;;;;;;;;;5038826;28;20038;-68
2021/01/12 14:36:55;;;;;;;5.72;1.48;;;;;;;;;;5029426;28;20049;-68
2021/01/12 14:39:30;;;;;;;5.38;1.10;;;;;;;;;;5036819;28;20057;-68
2021/01/12 14:41:57;;;;;;;5.70;0.85;;;;;;;;;;5042292;28;20107;-68
2021/01/12 14:44:24;;;;;;;6.40;1.30;;;;;;;;;;5035891;28;20040;-68
2021/01/12 14:46:51;;;;;;;4.63;0.82;;;;;;;;;;5041744;28;20409;-69